x

Buoy A01 - Mass. Bay/stellwagen (44029) Wave Buoy

3:04am - Tue 26th Jul 2016 All times are EDT. -4 hours from GMT.

  • Sig Wave height 2.3ft
  • Peak Period 4s
  • Wind
    9mph
  • Sea Temp 69°f
  • 空気 Temp 72°f
  • Sea Pressure 1006.7mb
  • Buoy A01 - Mass. Bay/stellwagen
  • Buoy A01 - Mass. Bay/stellwagen

More Historic Weather Station data

Upgrade to MSW Pro to gain access to the past 30 days of data for over 8000 Wavebouys and Weather Stations around the globe.

Join Pro

Comparision Forecast

View Surf forecast
   
Tue 07/26 3:04am 2.5ft 4s 9
mph
1006.7mb 69f 72f
2:04am 2.5ft 3s 9 11 mph 1006.7mb 69f 72f
1:04am 2ft 3s 9 11 mph 1006.9mb 69f 72f
12:04am 2.5ft 3s 11
mph
1007.3mb 69f 73f
Mon 07/25 11:04pm 2ft 4s 9
mph
1007.7mb 68f 71f
10:04pm 2.5ft 4s 13 16 mph 1008.2mb 69f 73f
9:04pm 2.5ft 4s 13 16 mph 1008.3mb 69f 73f
8:04pm 3.5ft 4s 11 13 mph 1008.4mb 68f 72f
7:04pm 3.5ft 4s 16
mph
1008.2mb 68f 74f
6:04pm 2ft 3s 16 18 mph 1007.5mb 68f 74f
5:04pm  -   -  13 16 mph 1007.9mb 69f 74f
3:04pm  -   -  9
mph
1010mb 69f 72f
2:04pm 1ft 6s 9 11 mph 1011mb 69f 72f
1:04pm 1ft 6s 7
mph
1011.7mb 69f 71f
12:04pm 1ft 6s 7 9 mph 1012.7mb 70f 71f
11:04am  -   -  7
mph
1012.9mb 69f 71f
10:04am  -   -  2
mph
1013.4mb 69f 73f
8:04am 1ft 8s 4
mph
1013.8mb 68f 70f
7:04am 1ft 8s 2
mph
1014.2mb 68f 69f
6:04am 1ft 7s  -  2 mph 1013.7mb 68f 71f
5:04am 1.3ft 8s 4
mph
1013.7mb 68f 68f
4:04am 1.3ft 7s 4
mph
1013.4mb 68f 69f
3:04am 1ft 7s 4 7 mph 1013.6mb 69f 69f
2:04am 1.3ft 7s 4
mph
1013.8mb 69f 70f
1:04am 1.3ft 8s 4 7 mph 1014.2mb 69f 69f
12:04am 1ft 7s 2 4 mph 1014.5mb 69f 69f
Sun 07/24 11:04pm 1.3ft 7s 4
mph
1014.8mb 69f 70f
10:04pm 1ft 7s 7
mph
1014.6mb 69f 70f
9:04pm 1.3ft 8s 7 9 mph 1014.3mb 69f 70f
8:04pm 1ft 7s 7 9 mph 1013.8mb 69f 71f
7:04pm 1ft 8s 11
mph
1013.3mb 70f 72f
6:04pm 1ft 8s 9 11 mph 1012.9mb 70f 72f
5:04pm 1.3ft 8s 9 11 mph 1012.9mb 70f 72f
4:04pm 1ft 8s 9 11 mph 1013mb 71f 72f
3:04pm 1.3ft 8s 9 11 mph 1013.2mb 71f 72f
2:04pm 1.3ft 7s 7 9 mph 1013.3mb 69f 72f
1:04pm 1.3ft 7s 4 7 mph 1013.5mb 69f 72f
12:04pm 1.3ft 7s 4 7 mph 1013.3mb 71f 72f
11:04am 1.3ft 7s 4
mph
1013.3mb 69f 71f
10:04am 1.3ft 8s 4
mph
1013.3mb 68f 72f
9:04am 1ft 2s 7
mph
1013.3mb 68f 73f
8:04am 1ft 7s 7 9 mph 1013.2mb 68f 69f
7:04am 1ft 2s 11 13 mph 1012.9mb 68f 68f
6:04am 1.3ft 7s 11 13 mph 1011.9mb 68f 68f
5:04am 1.3ft 3s 13 18 mph 1011.6mb 68f 68f
4:04am 1.6ft 3s 13 18 mph 1011.4mb 68f 68f
3:04am 1.3ft 7s 13 16 mph 1011.3mb 68f 67f
2:04am 1.6ft 3s 11 13 mph 1010.7mb 68f 68f
1:04am 2ft 7s 16 18 mph 1010.9mb 68f 69f
12:04am 1.6ft 7s 11 16 mph 1010.4mb 68f 70f
Sat 07/23 11:04pm 1.3ft 7s 9 11 mph 1009.9mb 69f 69f
10:04pm 1.3ft 8s 9
mph
1009.9mb 70f 68f
9:04pm 1.3ft 8s 4 7 mph 1009.2mb 70f 68f
8:04pm 1.3ft 3s 16 20 mph 1009.1mb 70f 67f
7:04pm 1.3ft 3s 9 16 mph 1006.6mb 70f 74f
6:04pm 1.3ft 3s 7 9 mph 1006.1mb 70f 73f
5:04pm 1.6ft 8s 11 13 mph 1006mb 69f 73f
4:04pm 1.3ft 6s 11
mph
1006mb 69f 74f
3:04pm 1.3ft 4s 9 11 mph 1006.1mb 69f 73f
2:04pm 1.3ft 6s 7
mph
1006.6mb 69f 73f
1:04pm 1ft 6s 7
mph
1006.9mb 68f 72f
12:04pm 1ft 7s 7
mph
1007.1mb 68f 72f
11:04am 1ft 7s 4
mph
1007.1mb 66f 73f
10:04am 1.3ft 3s 4 7 mph 1007.1mb 66f 71f
9:04am 2ft 4s 9
mph
1007.5mb 67f 71f
8:04am 2.5ft 4s 7
mph
1007.5mb 67f 70f
7:04am 2.5ft 4s 11
mph
1007.2mb 67f 70f
6:04am 2.5ft 4s 11 13 mph 1006.9mb 67f 70f
5:04am 2.5ft 4s 9
mph
1006.7mb 68f 71f
4:04am 3ft 5s 11 13 mph 1006.5mb 69f 71f
3:04am 3ft 5s 13 16 mph 1006mb 69f 73f
2:04am 3ft 5s 16 18 mph 1006.3mb 69f 73f
1:04am 3.5ft 5s 18 20 mph 1006.3mb 69f 73f
12:04am 3ft 5s 13 16 mph 1006.6mb 69f 72f
Fri 07/22 11:04pm 2ft 5s 16 18 mph 1006.7mb 69f 73f
10:04pm 3ft 4s 16 18 mph 1006.7mb 69f 75f
9:04pm 3.5ft 4s 18 20 mph 1006.3mb 69f 77f
8:04pm 2.5ft 4s 18 20 mph 1005.8mb 70f 76f
7:04pm 2.5ft 4s 13 16 mph 1005.7mb 70f 76f
6:04pm 2.5ft 4s 13 18 mph 1005.6mb 70f 77f
5:04pm 2.5ft 4s 13 18 mph 1006mb 69f 78f
4:04pm 2.5ft 4s 13 16 mph 1006.2mb 69f 76f
3:04pm 2.5ft 4s 11 16 mph 1006.6mb 69f 76f
2:04pm 2ft 4s 9 11 mph 1007.2mb 69f 74f
1:04pm 2ft 4s 9 11 mph 1008mb 69f 74f
12:04pm 1.6ft 4s 11 13 mph 1008.9mb 69f 74f
11:04am 2.5ft 4s 11 13 mph 1009.8mb 68f 73f
10:04am 2ft 4s 7 9 mph 1010.5mb 68f 72f
9:04am 2.5ft 4s 13 16 mph 1011.1mb 68f 71f